sensor_id;sensor_type;location;lat;lon;timestamp;temperature;humidity
67870;DHT22;54673;52.262;6.830;2023-03-31T00:00:44;18.80;53.50
67870;DHT22;54673;52.262;6.830;2023-03-31T00:03:13;18.80;53.40
67870;DHT22;54673;52.262;6.830;2023-03-31T00:05:47;18.80;53.40
67870;DHT22;54673;52.262;6.830;2023-03-31T00:08:12;18.80;53.40
67870;DHT22;54673;52.262;6.830;2023-03-31T00:10:44;18.80;53.50
67870;DHT22;54673;52.262;6.830;2023-03-31T00:13:11;18.70;53.50
67870;DHT22;54673;52.262;6.830;2023-03-31T00:15:37;18.70;53.80
67870;DHT22;54673;52.262;6.830;2023-03-31T00:18:03;18.70;53.80
67870;DHT22;54673;52.262;6.830;2023-03-31T00:20:29;18.70;53.80
67870;DHT22;54673;52.262;6.830;2023-03-31T00:22:58;18.70;53.60
67870;DHT22;54673;52.262;6.830;2023-03-31T00:25:25;18.70;53.70
67870;DHT22;54673;52.262;6.830;2023-03-31T00:27:51;18.70;53.70
67870;DHT22;54673;52.262;6.830;2023-03-31T00:30:17;18.60;53.80
67870;DHT22;54673;52.262;6.830;2023-03-31T00:32:42;18.70;53.90
67870;DHT22;54673;52.262;6.830;2023-03-31T00:35:08;18.60;53.80
67870;DHT22;54673;52.262;6.830;2023-03-31T00:37:34;18.60;54.00
67870;DHT22;54673;52.262;6.830;2023-03-31T00:40:00;18.70;53.90
67870;DHT22;54673;52.262;6.830;2023-03-31T00:42:26;18.70;53.70
67870;DHT22;54673;52.262;6.830;2023-03-31T00:45:25;18.60;53.80
67870;DHT22;54673;52.262;6.830;2023-03-31T00:48:17;18.60;53.90
67870;DHT22;54673;52.262;6.830;2023-03-31T00:50:50;18.60;54.00
67870;DHT22;54673;52.262;6.830;2023-03-31T00:53:18;18.50;54.00
67870;DHT22;54673;52.262;6.830;2023-03-31T00:55:52;18.60;53.80
67870;DHT22;54673;52.262;6.830;2023-03-31T00:58:19;18.60;53.80
67870;DHT22;54673;52.262;6.830;2023-03-31T01:00:46;18.60;53.90
67870;DHT22;54673;52.262;6.830;2023-03-31T01:03:13;18.50;54.80
67870;DHT22;54673;52.262;6.830;2023-03-31T01:05:44;18.60;53.80
67870;DHT22;54673;52.262;6.830;2023-03-31T01:08:12;18.60;53.90
67870;DHT22;54673;52.262;6.830;2023-03-31T01:10:44;18.60;53.70
67870;DHT22;54673;52.262;6.830;2023-03-31T01:13:13;18.70;53.80
67870;DHT22;54673;52.262;6.830;2023-03-31T01:15:39;18.50;53.90
67870;DHT22;54673;52.262;6.830;2023-03-31T01:18:06;18.50;53.90
67870;DHT22;54673;52.262;6.830;2023-03-31T01:28:59;18.50;53.90
67870;DHT22;54673;52.262;6.830;2023-03-31T01:36:57;18.50;53.80
67870;DHT22;54673;52.262;6.830;2023-03-31T01:47:58;18.40;53.90
67870;DHT22;54673;52.262;6.830;2023-03-31T01:53:25;18.40;53.90
67870;DHT22;54673;52.262;6.830;2023-03-31T01:58:40;18.50;53.70
67870;DHT22;54673;52.262;6.830;2023-03-31T02:03:58;18.50;53.80
67870;DHT22;54673;52.262;6.830;2023-03-31T02:06:28;18.40;53.70
67870;DHT22;54673;52.262;6.830;2023-03-31T02:08:59;18.40;53.80
67870;DHT22;54673;52.262;6.830;2023-03-31T02:11:27;19.00;54.10
67870;DHT22;54673;52.262;6.830;2023-03-31T02:13:55;18.40;53.80
67870;DHT22;54673;52.262;6.830;2023-03-31T02:16:24;18.40;53.90
67870;DHT22;54673;52.262;6.830;2023-03-31T02:18:54;18.50;53.70
67870;DHT22;54673;52.262;6.830;2023-03-31T02:21:30;18.40;53.80
67870;DHT22;54673;52.262;6.830;2023-03-31T02:23:56;18.50;53.80
67870;DHT22;54673;52.262;6.830;2023-03-31T02:26:27;18.40;54.00
67870;DHT22;54673;52.262;6.830;2023-03-31T02:28:55;19.40;54.40
67870;DHT22;54673;52.262;6.830;2023-03-31T02:34:02;18.40;53.90
67870;DHT22;54673;52.262;6.830;2023-03-31T02:36:28;18.40;53.70
67870;DHT22;54673;52.262;6.830;2023-03-31T02:39:09;18.40;53.90
67870;DHT22;54673;52.262;6.830;2023-03-31T02:41:36;18.40;54.00
67870;DHT22;54673;52.262;6.830;2023-03-31T02:44:03;18.40;54.00
67870;DHT22;54673;52.262;6.830;2023-03-31T02:46:28;18.30;54.10
67870;DHT22;54673;52.262;6.830;2023-03-31T02:48:57;18.30;53.90
67870;DHT22;54673;52.262;6.830;2023-03-31T03:05:11;18.40;54.00
67870;DHT22;54673;52.262;6.830;2023-03-31T03:07:57;18.40;53.90
67870;DHT22;54673;52.262;6.830;2023-03-31T03:13:45;18.30;53.90
67870;DHT22;54673;52.262;6.830;2023-03-31T03:16:20;18.30;54.20
67870;DHT22;54673;52.262;6.830;2023-03-31T03:19:01;18.40;53.80
67870;DHT22;54673;52.262;6.830;2023-03-31T03:21:27;18.40;53.80
67870;DHT22;54673;52.262;6.830;2023-03-31T03:23:53;18.40;53.90
67870;DHT22;54673;52.262;6.830;2023-03-31T03:26:19;18.40;54.00
67870;DHT22;54673;52.262;6.830;2023-03-31T03:28:50;18.40;54.00
67870;DHT22;54673;52.262;6.830;2023-03-31T03:31:16;18.40;54.10
67870;DHT22;54673;52.262;6.830;2023-03-31T03:33:42;18.40;54.10
67870;DHT22;54673;52.262;6.830;2023-03-31T03:36:08;18.30;53.90
67870;DHT22;54673;52.262;6.830;2023-03-31T03:38:34;18.30;54.10
67870;DHT22;54673;52.262;6.830;2023-03-31T03:40:59;18.40;54.00
67870;DHT22;54673;52.262;6.830;2023-03-31T03:43:25;18.40;54.00
67870;DHT22;54673;52.262;6.830;2023-03-31T03:45:51;18.40;54.00
67870;DHT22;54673;52.262;6.830;2023-03-31T03:48:17;18.40;53.90
67870;DHT22;54673;52.262;6.830;2023-03-31T03:50:47;18.30;54.00
67870;DHT22;54673;52.262;6.830;2023-03-31T03:53:13;18.40;54.10
67870;DHT22;54673;52.262;6.830;2023-03-31T03:55:39;18.30;54.10
67870;DHT22;54673;52.262;6.830;2023-03-31T03:58:05;18.30;54.10
67870;DHT22;54673;52.262;6.830;2023-03-31T04:00:30;18.40;53.90
67870;DHT22;54673;52.262;6.830;2023-03-31T04:02:56;18.30;54.00
67870;DHT22;54673;52.262;6.830;2023-03-31T04:05:22;18.30;53.90
67870;DHT22;54673;52.262;6.830;2023-03-31T04:07:47;18.30;54.10
67870;DHT22;54673;52.262;6.830;2023-03-31T04:10:13;18.30;54.00
67870;DHT22;54673;52.262;6.830;2023-03-31T04:12:39;18.30;54.10
67870;DHT22;54673;52.262;6.830;2023-03-31T04:15:05;18.30;54.10
67870;DHT22;54673;52.262;6.830;2023-03-31T04:17:31;18.30;54.10
67870;DHT22;54673;52.262;6.830;2023-03-31T04:20:05;18.30;54.00
67870;DHT22;54673;52.262;6.830;2023-03-31T04:22:32;17.30;53.40
67870;DHT22;54673;52.262;6.830;2023-03-31T04:25:05;18.30;54.10
67870;DHT22;54673;52.262;6.830;2023-03-31T04:27:48;18.30;54.10
67870;DHT22;54673;52.262;6.830;2023-03-31T04:30:21;18.30;54.10
67870;DHT22;54673;52.262;6.830;2023-03-31T04:32:53;18.30;54.20
67870;DHT22;54673;52.262;6.830;2023-03-31T04:35:23;18.30;54.90
67870;DHT22;54673;52.262;6.830;2023-03-31T04:37:50;18.30;54.00
67870;DHT22;54673;52.262;6.830;2023-03-31T04:40:17;18.30;53.90
67870;DHT22;54673;52.262;6.830;2023-03-31T04:42:43;18.30;53.90
67870;DHT22;54673;52.262;6.830;2023-03-31T04:45:10;18.30;54.00
67870;DHT22;54673;52.262;6.830;2023-03-31T04:47:36;18.30;54.10
67870;DHT22;54673;52.262;6.830;2023-03-31T04:50:02;18.30;54.20
67870;DHT22;54673;52.262;6.830;2023-03-31T04:52:28;18.30;54.10
67870;DHT22;54673;52.262;6.830;2023-03-31T04:54:53;18.30;54.10
67870;DHT22;54673;52.262;6.830;2023-03-31T04:57:19;18.20;54.30
67870;DHT22;54673;52.262;6.830;2023-03-31T04:59:44;18.20;54.20
67870;DHT22;54673;52.262;6.830;2023-03-31T05:02:11;18.30;54.20
67870;DHT22;54673;52.262;6.830;2023-03-31T05:04:36;18.30;54.10
67870;DHT22;54673;52.262;6.830;2023-03-31T05:07:02;18.20;54.10
67870;DHT22;54673;52.262;6.830;2023-03-31T05:09:28;18.30;54.20
67870;DHT22;54673;52.262;6.830;2023-03-31T05:11:53;18.20;54.20
67870;DHT22;54673;52.262;6.830;2023-03-31T05:14:19;18.30;54.20
67870;DHT22;54673;52.262;6.830;2023-03-31T05:16:45;18.20;54.20
67870;DHT22;54673;52.262;6.830;2023-03-31T05:19:11;18.20;54.20
67870;DHT22;54673;52.262;6.830;2023-03-31T05:21:36;18.30;54.20
67870;DHT22;54673;52.262;6.830;2023-03-31T05:24:02;18.30;54.20
67870;DHT22;54673;52.262;6.830;2023-03-31T05:26:29;18.20;54.30
67870;DHT22;54673;52.262;6.830;2023-03-31T05:28:55;18.20;54.20
67870;DHT22;54673;52.262;6.830;2023-03-31T05:31:20;18.20;54.10
67870;DHT22;54673;52.262;6.830;2023-03-31T05:33:46;18.20;54.20
67870;DHT22;54673;52.262;6.830;2023-03-31T05:36:14;18.20;54.50
67870;DHT22;54673;52.262;6.830;2023-03-31T05:38:40;18.20;54.20
67870;DHT22;54673;52.262;6.830;2023-03-31T05:41:06;18.20;54.30
67870;DHT22;54673;52.262;6.830;2023-03-31T05:43:34;18.20;54.40
67870;DHT22;54673;52.262;6.830;2023-03-31T05:45:59;18.20;54.50
67870;DHT22;54673;52.262;6.830;2023-03-31T05:48:25;18.20;54.40
67870;DHT22;54673;52.262;6.830;2023-03-31T05:50:50;18.20;54.40
67870;DHT22;54673;52.262;6.830;2023-03-31T05:53:16;18.20;54.30
67870;DHT22;54673;52.262;6.830;2023-03-31T05:55:41;18.10;54.30
67870;DHT22;54673;52.262;6.830;2023-03-31T05:58:07;18.20;54.30
67870;DHT22;54673;52.262;6.830;2023-03-31T06:00:34;18.10;54.30
67870;DHT22;54673;52.262;6.830;2023-03-31T06:03:00;18.10;54.20
67870;DHT22;54673;52.262;6.830;2023-03-31T06:05:26;18.10;54.10
67870;DHT22;54673;52.262;6.830;2023-03-31T06:07:52;18.10;54.20
67870;DHT22;54673;52.262;6.830;2023-03-31T06:10:18;18.10;53.90
67870;DHT22;54673;52.262;6.830;2023-03-31T06:12:44;18.10;54.10
67870;DHT22;54673;52.262;6.830;2023-03-31T06:15:10;18.10;54.10
67870;DHT22;54673;52.262;6.830;2023-03-31T06:17:36;18.10;54.20
67870;DHT22;54673;52.262;6.830;2023-03-31T06:20:01;18.10;54.20
67870;DHT22;54673;52.262;6.830;2023-03-31T06:22:28;18.10;54.20
67870;DHT22;54673;52.262;6.830;2023-03-31T06:24:54;18.10;54.30
67870;DHT22;54673;52.262;6.830;2023-03-31T06:27:20;18.10;54.20
67870;DHT22;54673;52.262;6.830;2023-03-31T06:29:45;18.00;54.20
67870;DHT22;54673;52.262;6.830;2023-03-31T06:32:11;18.00;54.20
67870;DHT22;54673;52.262;6.830;2023-03-31T06:34:36;18.10;54.20
67870;DHT22;54673;52.262;6.830;2023-03-31T06:37:02;18.00;54.10
67870;DHT22;54673;52.262;6.830;2023-03-31T06:39:27;18.00;54.20
67870;DHT22;54673;52.262;6.830;2023-03-31T06:41:53;18.00;54.20
67870;DHT22;54673;52.262;6.830;2023-03-31T06:44:18;18.00;54.20
67870;DHT22;54673;52.262;6.830;2023-03-31T06:46:47;18.00;54.30
67870;DHT22;54673;52.262;6.830;2023-03-31T06:49:13;18.00;54.30
67870;DHT22;54673;52.262;6.830;2023-03-31T06:51:38;18.00;54.20
67870;DHT22;54673;52.262;6.830;2023-03-31T06:54:04;18.00;54.40
67870;DHT22;54673;52.262;6.830;2023-03-31T06:56:30;18.00;54.60
67870;DHT22;54673;52.262;6.830;2023-03-31T06:58:56;18.00;54.60
67870;DHT22;54673;52.262;6.830;2023-03-31T07:01:21;17.90;54.70
67870;DHT22;54673;52.262;6.830;2023-03-31T07:03:47;18.00;54.50
67870;DHT22;54673;52.262;6.830;2023-03-31T07:06:12;18.00;54.40
67870;DHT22;54673;52.262;6.830;2023-03-31T07:08:38;18.00;54.40
67870;DHT22;54673;52.262;6.830;2023-03-31T07:11:04;18.00;54.50
67870;DHT22;54673;52.262;6.830;2023-03-31T07:13:29;18.00;54.60
67870;DHT22;54673;52.262;6.830;2023-03-31T07:15:55;18.00;54.60
67870;DHT22;54673;52.262;6.830;2023-03-31T07:18:21;18.10;54.50
67870;DHT22;54673;52.262;6.830;2023-03-31T07:20:50;18.00;55.00
67870;DHT22;54673;52.262;6.830;2023-03-31T07:23:17;17.90;54.90
67870;DHT22;54673;52.262;6.830;2023-03-31T07:25:42;17.90;55.00
67870;DHT22;54673;52.262;6.830;2023-03-31T07:28:08;18.00;55.10
67870;DHT22;54673;52.262;6.830;2023-03-31T07:30:33;18.00;55.20
67870;DHT22;54673;52.262;6.830;2023-03-31T07:32:59;18.00;55.10
67870;DHT22;54673;52.262;6.830;2023-03-31T07:35:25;18.00;55.00
67870;DHT22;54673;52.262;6.830;2023-03-31T07:37:51;18.10;54.90
67870;DHT22;54673;52.262;6.830;2023-03-31T07:40:25;18.10;54.70
67870;DHT22;54673;52.262;6.830;2023-03-31T07:42:51;18.20;55.00
67870;DHT22;54673;52.262;6.830;2023-03-31T07:45:19;18.10;55.00
67870;DHT22;54673;52.262;6.830;2023-03-31T07:47:46;18.10;55.00
67870;DHT22;54673;52.262;6.830;2023-03-31T07:50:14;18.10;55.20
67870;DHT22;54673;52.262;6.830;2023-03-31T07:52:40;18.10;55.30
67870;DHT22;54673;52.262;6.830;2023-03-31T07:55:06;18.10;55.30
67870;DHT22;54673;52.262;6.830;2023-03-31T07:57:33;18.20;55.20
67870;DHT22;54673;52.262;6.830;2023-03-31T07:59:59;18.20;55.10
67870;DHT22;54673;52.262;6.830;2023-03-31T08:02:25;18.10;55.00
67870;DHT22;54673;52.262;6.830;2023-03-31T08:04:50;18.10;55.30
67870;DHT22;54673;52.262;6.830;2023-03-31T08:07:16;18.10;55.00
67870;DHT22;54673;52.262;6.830;2023-03-31T08:09:44;18.10;55.10
67870;DHT22;54673;52.262;6.830;2023-03-31T08:12:10;18.10;55.30
67870;DHT22;54673;52.262;6.830;2023-03-31T08:14:36;18.10;55.10
67870;DHT22;54673;52.262;6.830;2023-03-31T08:17:01;18.10;55.10
67870;DHT22;54673;52.262;6.830;2023-03-31T08:19:28;18.20;55.00
67870;DHT22;54673;52.262;6.830;2023-03-31T08:21:53;18.20;54.90
67870;DHT22;54673;52.262;6.830;2023-03-31T08:24:19;18.20;55.10
67870;DHT22;54673;52.262;6.830;2023-03-31T08:26:45;18.10;55.10
67870;DHT22;54673;52.262;6.830;2023-03-31T08:29:11;18.20;54.90
67870;DHT22;54673;52.262;6.830;2023-03-31T08:31:36;18.20;54.80
67870;DHT22;54673;52.262;6.830;2023-03-31T08:34:02;18.20;54.90
67870;DHT22;54673;52.262;6.830;2023-03-31T08:36:28;18.20;55.60
67870;DHT22;54673;52.262;6.830;2023-03-31T08:38:54;18.30;55.30
67870;DHT22;54673;52.262;6.830;2023-03-31T08:41:32;18.30;55.40
67870;DHT22;54673;52.262;6.830;2023-03-31T08:44:03;18.30;55.80
67870;DHT22;54673;52.262;6.830;2023-03-31T08:46:29;18.00;57.20
67870;DHT22;54673;52.262;6.830;2023-03-31T08:48:58;17.90;57.70
67870;DHT22;54673;52.262;6.830;2023-03-31T08:51:31;17.80;58.10
67870;DHT22;54673;52.262;6.830;2023-03-31T08:54:05;17.80;58.10
67870;DHT22;54673;52.262;6.830;2023-03-31T08:56:39;18.00;57.50
67870;DHT22;54673;52.262;6.830;2023-03-31T09:07:39;18.60;54.80
67870;DHT22;54673;52.262;6.830;2023-03-31T09:15:31;18.90;54.60
67870;DHT22;54673;52.262;6.830;2023-03-31T09:18:06;18.90;54.70
67870;DHT22;54673;52.262;6.830;2023-03-31T09:20:37;19.00;54.60
67870;DHT22;54673;52.262;6.830;2023-03-31T09:25:37;19.10;54.60
67870;DHT22;54673;52.262;6.830;2023-03-31T09:28:21;19.10;54.30
67870;DHT22;54673;52.262;6.830;2023-03-31T09:30:47;19.20;54.40
67870;DHT22;54673;52.262;6.830;2023-03-31T09:33:24;19.20;54.30
67870;DHT22;54673;52.262;6.830;2023-03-31T09:35:52;19.20;54.50
67870;DHT22;54673;52.262;6.830;2023-03-31T09:38:18;19.30;54.30
67870;DHT22;54673;52.262;6.830;2023-03-31T09:40:44;19.30;54.20
67870;DHT22;54673;52.262;6.830;2023-03-31T09:43:21;19.30;54.30
67870;DHT22;54673;52.262;6.830;2023-03-31T09:45:48;19.40;54.10
67870;DHT22;54673;52.262;6.830;2023-03-31T09:48:18;19.30;54.20
67870;DHT22;54673;52.262;6.830;2023-03-31T09:50:48;19.30;54.20
67870;DHT22;54673;52.262;6.830;2023-03-31T09:53:24;19.40;54.20
67870;DHT22;54673;52.262;6.830;2023-03-31T09:55:54;19.40;54.20
67870;DHT22;54673;52.262;6.830;2023-03-31T09:58:24;19.40;54.20
67870;DHT22;54673;52.262;6.830;2023-03-31T10:01:02;19.50;54.10
67870;DHT22;54673;52.262;6.830;2023-03-31T10:03:29;19.50;54.00
67870;DHT22;54673;52.262;6.830;2023-03-31T10:06:01;19.50;54.10
67870;DHT22;54673;52.262;6.830;2023-03-31T10:08:39;19.40;53.90
67870;DHT22;54673;52.262;6.830;2023-03-31T10:11:08;19.50;52.60
67870;DHT22;54673;52.262;6.830;2023-03-31T10:13:45;19.40;52.40
67870;DHT22;54673;52.262;6.830;2023-03-31T10:16:42;19.40;52.40
67870;DHT22;54673;52.262;6.830;2023-03-31T10:19:27;19.50;52.30
67870;DHT22;54673;52.262;6.830;2023-03-31T10:22:04;19.30;52.50
67870;DHT22;54673;52.262;6.830;2023-03-31T10:25:12;19.30;52.50
67870;DHT22;54673;52.262;6.830;2023-03-31T10:27:39;19.30;52.50
67870;DHT22;54673;52.262;6.830;2023-03-31T10:30:10;19.20;52.50
67870;DHT22;54673;52.262;6.830;2023-03-31T10:32:41;19.10;52.90
67870;DHT22;54673;52.262;6.830;2023-03-31T10:35:33;19.10;53.20
67870;DHT22;54673;52.262;6.830;2023-03-31T10:38:06;19.00;53.20
67870;DHT22;54673;52.262;6.830;2023-03-31T10:40:33;18.90;53.60
67870;DHT22;54673;52.262;6.830;2023-03-31T10:45:30;18.90;53.70
67870;DHT22;54673;52.262;6.830;2023-03-31T10:48:00;19.00;53.80
67870;DHT22;54673;52.262;6.830;2023-03-31T10:50:34;18.90;53.80
67870;DHT22;54673;52.262;6.830;2023-03-31T10:53:05;18.90;53.70
67870;DHT22;54673;52.262;6.830;2023-03-31T10:55:45;18.90;53.90
67870;DHT22;54673;52.262;6.830;2023-03-31T10:58:21;18.90;54.20
67870;DHT22;54673;52.262;6.830;2023-03-31T11:11:53;19.20;54.20
67870;DHT22;54673;52.262;6.830;2023-03-31T11:14:43;19.20;54.20
67870;DHT22;54673;52.262;6.830;2023-03-31T11:17:25;19.30;54.20
67870;DHT22;54673;52.262;6.830;2023-03-31T11:22:40;19.40;54.00
67870;DHT22;54673;52.262;6.830;2023-03-31T11:25:18;19.40;53.70
67870;DHT22;54673;52.262;6.830;2023-03-31T11:30:51;19.50;53.60
67870;DHT22;54673;52.262;6.830;2023-03-31T11:41:47;19.40;53.40
67870;DHT22;54673;52.262;6.830;2023-03-31T11:44:16;19.50;53.60
67870;DHT22;54673;52.262;6.830;2023-03-31T11:47:02;19.40;53.50
67870;DHT22;54673;52.262;6.830;2023-03-31T11:49:47;19.50;53.60
67870;DHT22;54673;52.262;6.830;2023-03-31T11:52:18;19.60;53.50
67870;DHT22;54673;52.262;6.830;2023-03-31T11:55:02;19.70;53.60
67870;DHT22;54673;52.262;6.830;2023-03-31T11:57:40;19.70;53.20
67870;DHT22;54673;52.262;6.830;2023-03-31T12:00:26;19.80;52.50
67870;DHT22;54673;52.262;6.830;2023-03-31T12:05:26;19.70;52.40
67870;DHT22;54673;52.262;6.830;2023-03-31T12:08:17;19.50;52.80
67870;DHT22;54673;52.262;6.830;2023-03-31T12:10:51;19.50;52.90
67870;DHT22;54673;52.262;6.830;2023-03-31T12:16:10;19.60;53.00
67870;DHT22;54673;52.262;6.830;2023-03-31T12:18:48;19.60;52.80
67870;DHT22;54673;52.262;6.830;2023-03-31T12:21:14;19.60;52.80
67870;DHT22;54673;52.262;6.830;2023-03-31T12:23:49;19.50;52.90
67870;DHT22;54673;52.262;6.830;2023-03-31T12:26:41;19.40;53.40
67870;DHT22;54673;52.262;6.830;2023-03-31T12:31:48;19.40;53.40
67870;DHT22;54673;52.262;6.830;2023-03-31T12:34:16;19.30;53.30
67870;DHT22;54673;52.262;6.830;2023-03-31T12:42:10;19.30;53.50
67870;DHT22;54673;52.262;6.830;2023-03-31T12:50:30;19.20;54.00
67870;DHT22;54673;52.262;6.830;2023-03-31T12:56:03;19.10;54.00
67870;DHT22;54673;52.262;6.830;2023-03-31T13:08:59;19.00;54.20
67870;DHT22;54673;52.262;6.830;2023-03-31T13:16:37;18.90;54.40
67870;DHT22;54673;52.262;6.830;2023-03-31T13:19:03;19.00;54.30
67870;DHT22;54673;52.262;6.830;2023-03-31T13:21:29;19.20;54.00
67870;DHT22;54673;52.262;6.830;2023-03-31T13:23:59;19.30;53.90
67870;DHT22;54673;52.262;6.830;2023-03-31T13:34:40;19.20;53.80
67870;DHT22;54673;52.262;6.830;2023-03-31T13:40:54;19.30;53.50
67870;DHT22;54673;52.262;6.830;2023-03-31T13:52:00;19.30;53.30
67870;DHT22;54673;52.262;6.830;2023-03-31T14:03:12;19.30;53.30
67870;DHT22;54673;52.262;6.830;2023-03-31T14:05:44;19.40;53.00
67870;DHT22;54673;52.262;6.830;2023-03-31T14:08:22;19.30;53.30
67870;DHT22;54673;52.262;6.830;2023-03-31T14:10:53;19.30;53.20
67870;DHT22;54673;52.262;6.830;2023-03-31T14:13:23;19.30;53.20
67870;DHT22;54673;52.262;6.830;2023-03-31T14:15:57;19.30;53.30
67870;DHT22;54673;52.262;6.830;2023-03-31T14:18:33;19.30;53.20
67870;DHT22;54673;52.262;6.830;2023-03-31T14:21:22;19.30;53.10
67870;DHT22;54673;52.262;6.830;2023-03-31T14:24:16;19.30;53.20
67870;DHT22;54673;52.262;6.830;2023-03-31T14:27:04;19.30;53.30
67870;DHT22;54673;52.262;6.830;2023-03-31T14:29:47;19.30;53.20
67870;DHT22;54673;52.262;6.830;2023-03-31T14:37:48;19.30;52.90
67870;DHT22;54673;52.262;6.830;2023-03-31T14:40:15;19.30;53.90
67870;DHT22;54673;52.262;6.830;2023-03-31T14:42:42;19.30;53.00
67870;DHT22;54673;52.262;6.830;2023-03-31T14:45:29;19.30;53.10
67870;DHT22;54673;52.262;6.830;2023-03-31T14:48:08;19.30;53.20
67870;DHT22;54673;52.262;6.830;2023-03-31T14:50:34;19.30;53.10
67870;DHT22;54673;52.262;6.830;2023-03-31T14:53:00;19.30;53.10
67870;DHT22;54673;52.262;6.830;2023-03-31T14:55:29;19.20;53.00
67870;DHT22;54673;52.262;6.830;2023-03-31T14:57:58;19.20;53.20
67870;DHT22;54673;52.262;6.830;2023-03-31T15:00:28;19.20;53.10
67870;DHT22;54673;52.262;6.830;2023-03-31T15:02:57;19.20;53.30
67870;DHT22;54673;52.262;6.830;2023-03-31T15:05:28;19.20;53.30
67870;DHT22;54673;52.262;6.830;2023-03-31T15:08:05;19.20;53.10
67870;DHT22;54673;52.262;6.830;2023-03-31T15:10:35;19.20;53.10
67870;DHT22;54673;52.262;6.830;2023-03-31T15:13:29;19.20;53.30
67870;DHT22;54673;52.262;6.830;2023-03-31T15:15:55;19.10;53.70
67870;DHT22;54673;52.262;6.830;2023-03-31T15:18:20;19.10;54.00
67870;DHT22;54673;52.262;6.830;2023-03-31T15:20:46;19.20;54.30
67870;DHT22;54673;52.262;6.830;2023-03-31T15:23:39;19.20;54.00
67870;DHT22;54673;52.262;6.830;2023-03-31T15:26:08;19.20;54.20
67870;DHT22;54673;52.262;6.830;2023-03-31T15:28:56;19.30;54.20
67870;DHT22;54673;52.262;6.830;2023-03-31T15:31:23;19.20;54.50
67870;DHT22;54673;52.262;6.830;2023-03-31T15:33:51;19.40;54.00
67870;DHT22;54673;52.262;6.830;2023-03-31T15:36:19;19.50;53.90
67870;DHT22;54673;52.262;6.830;2023-03-31T15:38:46;19.60;53.80
67870;DHT22;54673;52.262;6.830;2023-03-31T15:41:14;19.60;53.60
67870;DHT22;54673;52.262;6.830;2023-03-31T15:46:10;19.70;53.70
67870;DHT22;54673;52.262;6.830;2023-03-31T15:48:56;19.70;53.70
67870;DHT22;54673;52.262;6.830;2023-03-31T15:51:35;19.70;53.50
67870;DHT22;54673;52.262;6.830;2023-03-31T15:54:01;19.70;53.70
67870;DHT22;54673;52.262;6.830;2023-03-31T15:56:31;19.80;53.60
67870;DHT22;54673;52.262;6.830;2023-03-31T15:59:00;19.60;54.00
67870;DHT22;54673;52.262;6.830;2023-03-31T16:01:32;19.50;54.40
67870;DHT22;54673;52.262;6.830;2023-03-31T16:04:01;19.70;54.10
67870;DHT22;54673;52.262;6.830;2023-03-31T16:06:40;19.80;53.70
67870;DHT22;54673;52.262;6.830;2023-03-31T16:09:10;19.90;53.60
67870;DHT22;54673;52.262;6.830;2023-03-31T16:11:44;19.90;53.50
67870;DHT22;54673;52.262;6.830;2023-03-31T16:14:31;19.90;53.80
67870;DHT22;54673;52.262;6.830;2023-03-31T16:17:03;20.00;53.70
67870;DHT22;54673;52.262;6.830;2023-03-31T16:19:37;20.00;54.00
67870;DHT22;54673;52.262;6.830;2023-03-31T16:22:05;20.00;54.00
67870;DHT22;54673;52.262;6.830;2023-03-31T16:24:32;20.00;54.00
67870;DHT22;54673;52.262;6.830;2023-03-31T16:27:00;19.90;54.40
67870;DHT22;54673;52.262;6.830;2023-03-31T16:29:31;19.90;54.20
67870;DHT22;54673;52.262;6.830;2023-03-31T16:32:28;19.80;54.20
67870;DHT22;54673;52.262;6.830;2023-03-31T16:34:57;19.90;53.70
67870;DHT22;54673;52.262;6.830;2023-03-31T16:37:23;19.90;53.80
67870;DHT22;54673;52.262;6.830;2023-03-31T16:39:48;19.90;53.60
67870;DHT22;54673;52.262;6.830;2023-03-31T16:42:14;19.90;53.50
67870;DHT22;54673;52.262;6.830;2023-03-31T16:44:40;19.90;53.30
67870;DHT22;54673;52.262;6.830;2023-03-31T16:47:06;19.90;53.30
67870;DHT22;54673;52.262;6.830;2023-03-31T16:49:31;19.90;53.40
67870;DHT22;54673;52.262;6.830;2023-03-31T16:51:57;20.00;53.10
67870;DHT22;54673;52.262;6.830;2023-03-31T16:54:22;20.00;53.00
67870;DHT22;54673;52.262;6.830;2023-03-31T16:56:48;19.90;53.10
67870;DHT22;54673;52.262;6.830;2023-03-31T16:59:14;19.80;53.20
67870;DHT22;54673;52.262;6.830;2023-03-31T17:01:40;19.80;53.10
67870;DHT22;54673;52.262;6.830;2023-03-31T17:04:06;19.70;53.20
67870;DHT22;54673;52.262;6.830;2023-03-31T17:06:32;19.90;53.10
67870;DHT22;54673;52.262;6.830;2023-03-31T17:08:57;19.70;53.10
67870;DHT22;54673;52.262;6.830;2023-03-31T17:11:23;19.80;53.20
67870;DHT22;54673;52.262;6.830;2023-03-31T17:13:49;19.70;53.10
67870;DHT22;54673;52.262;6.830;2023-03-31T17:16:15;19.80;52.90
67870;DHT22;54673;52.262;6.830;2023-03-31T17:18:42;19.60;53.00
67870;DHT22;54673;52.262;6.830;2023-03-31T17:21:12;19.70;52.90
67870;DHT22;54673;52.262;6.830;2023-03-31T17:23:39;19.60;52.90
67870;DHT22;54673;52.262;6.830;2023-03-31T17:26:06;19.70;52.90
67870;DHT22;54673;52.262;6.830;2023-03-31T17:28:34;19.80;52.90
67870;DHT22;54673;52.262;6.830;2023-03-31T17:31:00;19.70;53.10
67870;DHT22;54673;52.262;6.830;2023-03-31T17:33:26;19.70;53.50
67870;DHT22;54673;52.262;6.830;2023-03-31T17:35:58;19.60;53.50
67870;DHT22;54673;52.262;6.830;2023-03-31T17:38:25;19.60;53.60
67870;DHT22;54673;52.262;6.830;2023-03-31T17:40:50;19.70;53.70
67870;DHT22;54673;52.262;6.830;2023-03-31T17:43:16;19.70;53.80
67870;DHT22;54673;52.262;6.830;2023-03-31T17:45:42;19.70;53.70
67870;DHT22;54673;52.262;6.830;2023-03-31T17:48:08;19.70;53.70
67870;DHT22;54673;52.262;6.830;2023-03-31T17:50:35;19.80;53.60
67870;DHT22;54673;52.262;6.830;2023-03-31T17:53:01;19.80;53.60
67870;DHT22;54673;52.262;6.830;2023-03-31T17:55:36;19.90;53.70
67870;DHT22;54673;52.262;6.830;2023-03-31T17:58:05;19.90;53.60
67870;DHT22;54673;52.262;6.830;2023-03-31T18:00:32;20.00;53.70
67870;DHT22;54673;52.262;6.830;2023-03-31T18:02:58;20.00;53.70
67870;DHT22;54673;52.262;6.830;2023-03-31T18:05:24;20.00;53.90
67870;DHT22;54673;52.262;6.830;2023-03-31T18:07:49;20.00;53.70
67870;DHT22;54673;52.262;6.830;2023-03-31T18:10:16;20.00;53.70
67870;DHT22;54673;52.262;6.830;2023-03-31T18:12:42;20.70;54.10
67870;DHT22;54673;52.262;6.830;2023-03-31T18:15:09;20.00;53.70
67870;DHT22;54673;52.262;6.830;2023-03-31T18:17:35;20.10;53.70
67870;DHT22;54673;52.262;6.830;2023-03-31T18:20:00;20.20;53.60
67870;DHT22;54673;52.262;6.830;2023-03-31T18:22:26;20.20;53.50
67870;DHT22;54673;52.262;6.830;2023-03-31T18:24:52;20.30;53.70
67870;DHT22;54673;52.262;6.830;2023-03-31T18:27:18;20.30;53.80
67870;DHT22;54673;52.262;6.830;2023-03-31T18:29:43;20.30;54.20
67870;DHT22;54673;52.262;6.830;2023-03-31T18:32:09;20.30;53.90
67870;DHT22;54673;52.262;6.830;2023-03-31T18:34:36;20.40;53.70